sensor_id;sensor_type;location;lat;lon;timestamp;pressure;altitude;pressure_sealevel;temperature;humidity
24440;BME280;12618;54.386;18.394;2023-02-20T16:23:01;97943.75;;;6.46;100.00
24440;BME280;12618;54.386;18.394;2023-02-20T16:25:33;97944.31;;;6.46;100.00
24440;BME280;12618;54.386;18.394;2023-02-20T16:28:06;97936.66;;;6.42;100.00
24440;BME280;12618;54.386;18.394;2023-02-20T16:37:43;97924.89;;;6.35;100.00
24440;BME280;12618;54.386;18.394;2023-02-20T16:40:18;97934.84;;;6.32;100.00
24440;BME280;12618;54.386;18.394;2023-02-20T16:42:51;97922.73;;;6.30;100.00
24440;BME280;12618;54.386;18.394;2023-02-20T16:45:23;97935.05;;;6.29;100.00
24440;BME280;12618;54.386;18.394;2023-02-20T16:47:56;97952.80;;;6.27;100.00
24440;BME280;12618;54.386;18.394;2023-02-20T16:50:30;97950.66;;;6.27;100.00
24440;BME280;12618;54.386;18.394;2023-02-20T16:53:06;97958.30;;;6.25;100.00
24440;BME280;12618;54.386;18.394;2023-02-20T16:55:39;97958.90;;;6.24;100.00
24440;BME280;12618;54.386;18.394;2023-02-20T16:58:15;97974.26;;;6.21;100.00
24440;BME280;12618;54.386;18.394;2023-02-20T17:00:48;97975.80;;;6.18;100.00
24440;BME280;12618;54.386;18.394;2023-02-20T17:03:28;97983.01;;;6.15;100.00
24440;BME280;12618;54.386;18.394;2023-02-20T17:06:00;97977.94;;;6.12;100.00
24440;BME280;12618;54.386;18.394;2023-02-20T17:08:31;97971.73;;;6.10;100.00
24440;BME280;12618;54.386;18.394;2023-02-20T17:11:03;97995.05;;;6.12;100.00
24440;BME280;12618;54.386;18.394;2023-02-20T17:13:35;97990.52;;;6.12;100.00
24440;BME280;12618;54.386;18.394;2023-02-20T17:16:07;98001.30;;;6.06;100.00
24440;BME280;12618;54.386;18.394;2023-02-20T17:18:45;98001.60;;;5.98;100.00
24440;BME280;12618;54.386;18.394;2023-02-20T17:21:17;97996.64;;;5.93;100.00
24440;BME280;12618;54.386;18.394;2023-02-20T17:23:48;97997.36;;;5.86;100.00
24440;BME280;12618;54.386;18.394;2023-02-20T17:26:20;98003.36;;;5.81;100.00
24440;BME280;12618;54.386;18.394;2023-02-20T17:28:53;98012.96;;;5.78;100.00
24440;BME280;12618;54.386;18.394;2023-02-20T17:31:27;98016.73;;;5.76;100.00
24440;BME280;12618;54.386;18.394;2023-02-20T17:33:59;98011.15;;;5.76;100.00
24440;BME280;12618;54.386;18.394;2023-02-20T17:36:34;98008.54;;;5.73;100.00
24440;BME280;12618;54.386;18.394;2023-02-20T17:39:06;98024.55;;;5.71;100.00
24440;BME280;12618;54.386;18.394;2023-02-20T17:41:37;98031.39;;;5.70;100.00
24440;BME280;12618;54.386;18.394;2023-02-20T17:44:10;98025.77;;;5.71;100.00
24440;BME280;12618;54.386;18.394;2023-02-20T17:46:46;98023.88;;;5.70;100.00
24440;BME280;12618;54.386;18.394;2023-02-20T17:49:22;98022.44;;;5.71;100.00
24440;BME280;12618;54.386;18.394;2023-02-20T17:51:55;98034.81;;;5.68;100.00
24440;BME280;12618;54.386;18.394;2023-02-20T17:54:30;98034.90;;;5.67;100.00
24440;BME280;12618;54.386;18.394;2023-02-20T17:57:05;98037.36;;;5.66;100.00
24440;BME280;12618;54.386;18.394;2023-02-20T17:59:40;98027.45;;;5.63;100.00
24440;BME280;12618;54.386;18.394;2023-02-20T18:02:13;98029.60;;;5.62;100.00
24440;BME280;12618;54.386;18.394;2023-02-20T18:04:48;98020.42;;;5.61;100.00
24440;BME280;12618;54.386;18.394;2023-02-20T18:07:20;98019.27;;;5.59;100.00
24440;BME280;12618;54.386;18.394;2023-02-20T18:09:52;98023.77;;;5.60;100.00
24440;BME280;12618;54.386;18.394;2023-02-20T18:12:25;98020.80;;;5.60;100.00
24440;BME280;12618;54.386;18.394;2023-02-20T18:14:57;98013.91;;;5.62;100.00
24440;BME280;12618;54.386;18.394;2023-02-20T18:17:29;98011.43;;;5.62;100.00
24440;BME280;12618;54.386;18.394;2023-02-20T18:20:00;98024.75;;;5.64;100.00
24440;BME280;12618;54.386;18.394;2023-02-20T18:22:32;98011.28;;;5.65;100.00
24440;BME280;12618;54.386;18.394;2023-02-20T18:25:06;98008.48;;;5.65;100.00
24440;BME280;12618;54.386;18.394;2023-02-20T18:27:37;98008.27;;;5.63;100.00
24440;BME280;12618;54.386;18.394;2023-02-20T18:30:10;98008.59;;;5.60;100.00
24440;BME280;12618;54.386;18.394;2023-02-20T18:32:42;98008.13;;;5.59;100.00
24440;BME280;12618;54.386;18.394;2023-02-20T18:35:15;98009.91;;;5.58;100.00
24440;BME280;12618;54.386;18.394;2023-02-20T18:37:47;98016.16;;;5.59;100.00
24440;BME280;12618;54.386;18.394;2023-02-20T18:40:19;98011.71;;;5.57;100.00
24440;BME280;12618;54.386;18.394;2023-02-20T18:42:52;98014.15;;;5.57;100.00
24440;BME280;12618;54.386;18.394;2023-02-20T18:45:23;98021.27;;;5.58;100.00
24440;BME280;12618;54.386;18.394;2023-02-20T18:47:55;98029.02;;;5.59;100.00
24440;BME280;12618;54.386;18.394;2023-02-20T18:50:27;98017.98;;;5.61;100.00
24440;BME280;12618;54.386;18.394;2023-02-20T18:52:59;98023.82;;;5.62;100.00
24440;BME280;12618;54.386;18.394;2023-02-20T18:55:31;98033.11;;;5.61;100.00
24440;BME280;12618;54.386;18.394;2023-02-20T18:58:03;98020.20;;;5.64;100.00
24440;BME280;12618;54.386;18.394;2023-02-20T19:00:34;98018.66;;;5.64;100.00
24440;BME280;12618;54.386;18.394;2023-02-20T19:03:08;98029.07;;;5.62;100.00
24440;BME280;12618;54.386;18.394;2023-02-20T19:05:40;98023.87;;;5.61;100.00
24440;BME280;12618;54.386;18.394;2023-02-20T19:08:12;98027.36;;;5.61;100.00
24440;BME280;12618;54.386;18.394;2023-02-20T19:10:43;98034.15;;;5.61;100.00
24440;BME280;12618;54.386;18.394;2023-02-20T19:13:15;98034.02;;;5.61;100.00
24440;BME280;12618;54.386;18.394;2023-02-20T19:15:47;98029.63;;;5.61;100.00
24440;BME280;12618;54.386;18.394;2023-02-20T19:18:19;98034.80;;;5.59;100.00
24440;BME280;12618;54.386;18.394;2023-02-20T19:20:51;98035.80;;;5.60;100.00
24440;BME280;12618;54.386;18.394;2023-02-20T19:23:23;98038.45;;;5.63;100.00
24440;BME280;12618;54.386;18.394;2023-02-20T19:25:55;98021.27;;;5.61;100.00
24440;BME280;12618;54.386;18.394;2023-02-20T19:28:29;98033.52;;;5.60;100.00
24440;BME280;12618;54.386;18.394;2023-02-20T19:31:02;98022.78;;;5.59;100.00
24440;BME280;12618;54.386;18.394;2023-02-20T19:33:34;98019.39;;;5.57;100.00
24440;BME280;12618;54.386;18.394;2023-02-20T19:36:07;98021.95;;;5.58;100.00
24440;BME280;12618;54.386;18.394;2023-02-20T19:38:41;98030.67;;;5.58;100.00
24440;BME280;12618;54.386;18.394;2023-02-20T19:41:14;98045.80;;;5.59;100.00
24440;BME280;12618;54.386;18.394;2023-02-20T19:43:46;98048.98;;;5.61;100.00
24440;BME280;12618;54.386;18.394;2023-02-20T19:46:21;98052.38;;;5.66;100.00
24440;BME280;12618;54.386;18.394;2023-02-20T19:48:54;98059.11;;;5.71;100.00
24440;BME280;12618;54.386;18.394;2023-02-20T19:51:26;98069.88;;;5.75;100.00
24440;BME280;12618;54.386;18.394;2023-02-20T19:53:57;98063.44;;;5.80;100.00
24440;BME280;12618;54.386;18.394;2023-02-20T19:56:31;98067.55;;;5.85;100.00
24440;BME280;12618;54.386;18.394;2023-02-20T19:59:03;98070.89;;;5.88;100.00
24440;BME280;12618;54.386;18.394;2023-02-20T20:01:35;98086.83;;;5.94;100.00
24440;BME280;12618;54.386;18.394;2023-02-20T20:04:07;98075.10;;;5.98;100.00
24440;BME280;12618;54.386;18.394;2023-02-20T20:06:39;98077.52;;;6.01;100.00
24440;BME280;12618;54.386;18.394;2023-02-20T20:09:12;98080.33;;;6.05;100.00
24440;BME280;12618;54.386;18.394;2023-02-20T20:11:53;98077.94;;;6.03;100.00
24440;BME280;12618;54.386;18.394;2023-02-20T20:14:25;98090.61;;;6.05;100.00
24440;BME280;12618;54.386;18.394;2023-02-20T20:16:57;98094.91;;;6.06;100.00
24440;BME280;12618;54.386;18.394;2023-02-20T20:19:29;98085.76;;;6.07;100.00
24440;BME280;12618;54.386;18.394;2023-02-20T20:22:01;98082.38;;;6.05;100.00
24440;BME280;12618;54.386;18.394;2023-02-20T20:24:34;98071.59;;;6.05;100.00
24440;BME280;12618;54.386;18.394;2023-02-20T20:27:05;98069.52;;;6.04;100.00
24440;BME280;12618;54.386;18.394;2023-02-20T20:29:38;98073.46;;;6.05;100.00
24440;BME280;12618;54.386;18.394;2023-02-20T20:32:10;98072.76;;;6.06;100.00
24440;BME280;12618;54.386;18.394;2023-02-20T20:34:43;98077.02;;;6.07;100.00
24440;BME280;12618;54.386;18.394;2023-02-20T20:37:22;98072.80;;;6.05;100.00
24440;BME280;12618;54.386;18.394;2023-02-20T20:39:56;98073.14;;;6.02;100.00
24440;BME280;12618;54.386;18.394;2023-02-20T20:42:29;98081.76;;;6.00;100.00
24440;BME280;12618;54.386;18.394;2023-02-20T20:45:01;98078.71;;;6.02;100.00
24440;BME280;12618;54.386;18.394;2023-02-20T20:47:36;98082.95;;;6.04;100.00
24440;BME280;12618;54.386;18.394;2023-02-20T20:50:11;98076.39;;;6.06;100.00
24440;BME280;12618;54.386;18.394;2023-02-20T20:52:44;98078.23;;;6.05;100.00
24440;BME280;12618;54.386;18.394;2023-02-20T20:55:16;98080.86;;;6.07;100.00
24440;BME280;12618;54.386;18.394;2023-02-20T20:57:47;98080.02;;;6.10;100.00
24440;BME280;12618;54.386;18.394;2023-02-20T21:00:30;98072.17;;;6.09;100.00
24440;BME280;12618;54.386;18.394;2023-02-20T21:03:04;98073.76;;;6.09;100.00
24440;BME280;12618;54.386;18.394;2023-02-20T21:05:37;98075.21;;;6.08;100.00
24440;BME280;12618;54.386;18.394;2023-02-20T21:08:08;98075.69;;;6.06;100.00
24440;BME280;12618;54.386;18.394;2023-02-20T21:10:40;98069.78;;;6.06;100.00
24440;BME280;12618;54.386;18.394;2023-02-20T21:13:13;98066.55;;;6.04;100.00
24440;BME280;12618;54.386;18.394;2023-02-20T21:15:45;98064.72;;;6.02;100.00
24440;BME280;12618;54.386;18.394;2023-02-20T21:18:16;98058.98;;;6.02;100.00
24440;BME280;12618;54.386;18.394;2023-02-20T21:20:48;98075.02;;;6.03;100.00
24440;BME280;12618;54.386;18.394;2023-02-20T21:23:20;98078.02;;;6.05;100.00
24440;BME280;12618;54.386;18.394;2023-02-20T21:25:52;98080.20;;;6.07;100.00
24440;BME280;12618;54.386;18.394;2023-02-20T21:28:24;98075.81;;;6.07;100.00
24440;BME280;12618;54.386;18.394;2023-02-20T21:30:55;98074.63;;;6.06;100.00
24440;BME280;12618;54.386;18.394;2023-02-20T21:33:27;98073.95;;;6.06;100.00
24440;BME280;12618;54.386;18.394;2023-02-20T21:35:59;98077.70;;;6.08;100.00
24440;BME280;12618;54.386;18.394;2023-02-20T21:38:32;98076.81;;;6.08;100.00
24440;BME280;12618;54.386;18.394;2023-02-20T21:41:11;98084.79;;;6.06;100.00
24440;BME280;12618;54.386;18.394;2023-02-20T21:44:08;98077.17;;;6.05;100.00
24440;BME280;12618;54.386;18.394;2023-02-20T21:47:00;98073.05;;;6.03;100.00
24440;BME280;12618;54.386;18.394;2023-02-20T21:49:35;98071.09;;;6.04;100.00
24440;BME280;12618;54.386;18.394;2023-02-20T21:52:07;98070.21;;;6.04;100.00
24440;BME280;12618;54.386;18.394;2023-02-20T21:54:40;98076.35;;;6.04;100.00
24440;BME280;12618;54.386;18.394;2023-02-20T21:57:13;98067.59;;;6.04;100.00
24440;BME280;12618;54.386;18.394;2023-02-20T21:59:46;98067.98;;;6.03;100.00
24440;BME280;12618;54.386;18.394;2023-02-20T22:02:22;98081.20;;;6.04;100.00
24440;BME280;12618;54.386;18.394;2023-02-20T22:04:53;98078.52;;;6.08;100.00
24440;BME280;12618;54.386;18.394;2023-02-20T22:07:25;98077.13;;;6.08;100.00
24440;BME280;12618;54.386;18.394;2023-02-20T22:10:15;98072.30;;;6.10;100.00
24440;BME280;12618;54.386;18.394;2023-02-20T22:13:06;98080.36;;;6.10;100.00
24440;BME280;12618;54.386;18.394;2023-02-20T22:15:57;98082.19;;;6.11;100.00
24440;BME280;12618;54.386;18.394;2023-02-20T22:18:47;98079.67;;;6.09;100.00
24440;BME280;12618;54.386;18.394;2023-02-20T22:21:38;98088.48;;;6.08;100.00
24440;BME280;12618;54.386;18.394;2023-02-20T22:24:28;98087.74;;;6.06;100.00
24440;BME280;12618;54.386;18.394;2023-02-20T22:27:18;98083.95;;;6.05;100.00
24440;BME280;12618;54.386;18.394;2023-02-20T22:30:09;98075.39;;;6.05;100.00
24440;BME280;12618;54.386;18.394;2023-02-20T22:33:00;98071.39;;;6.02;100.00
24440;BME280;12618;54.386;18.394;2023-02-20T22:35:50;98067.00;;;5.99;100.00
24440;BME280;12618;54.386;18.394;2023-02-20T22:38:41;98072.31;;;5.98;100.00
24440;BME280;12618;54.386;18.394;2023-02-20T22:41:31;98066.58;;;5.95;100.00
24440;BME280;12618;54.386;18.394;2023-02-20T22:44:22;98072.94;;;5.93;100.00
24440;BME280;12618;54.386;18.394;2023-02-20T22:47:13;98069.15;;;5.92;100.00
24440;BME280;12618;54.386;18.394;2023-02-20T22:50:03;98074.51;;;5.90;100.00
24440;BME280;12618;54.386;18.394;2023-02-20T22:52:54;98071.38;;;5.90;100.00
24440;BME280;12618;54.386;18.394;2023-02-20T22:55:44;98062.92;;;5.91;100.00
24440;BME280;12618;54.386;18.394;2023-02-20T22:58:35;98073.33;;;5.89;100.00
24440;BME280;12618;54.386;18.394;2023-02-20T23:01:25;98067.02;;;5.90;100.00
24440;BME280;12618;54.386;18.394;2023-02-20T23:04:15;98058.52;;;5.89;100.00
24440;BME280;12618;54.386;18.394;2023-02-20T23:07:09;98055.23;;;5.87;100.00
24440;BME280;12618;54.386;18.394;2023-02-20T23:10:23;98050.02;;;5.86;100.00
24440;BME280;12618;54.386;18.394;2023-02-20T23:13:34;98049.41;;;5.85;100.00
24440;BME280;12618;54.386;18.394;2023-02-20T23:16:31;98052.12;;;5.84;100.00
24440;BME280;12618;54.386;18.394;2023-02-20T23:19:55;98052.73;;;5.89;100.00
24440;BME280;12618;54.386;18.394;2023-02-20T23:22:51;98050.82;;;5.89;100.00
24440;BME280;12618;54.386;18.394;2023-02-20T23:26:07;98052.55;;;5.92;100.00
24440;BME280;12618;54.386;18.394;2023-02-20T23:29:02;98066.83;;;5.93;100.00
24440;BME280;12618;54.386;18.394;2023-02-20T23:31:59;98060.81;;;5.95;100.00
24440;BME280;12618;54.386;18.394;2023-02-20T23:34:50;98067.95;;;5.95;100.00
24440;BME280;12618;54.386;18.394;2023-02-20T23:37:42;98061.58;;;5.96;100.00
24440;BME280;12618;54.386;18.394;2023-02-20T23:40:38;98057.16;;;5.94;100.00
24440;BME280;12618;54.386;18.394;2023-02-20T23:43:32;98064.61;;;5.92;100.00
24440;BME280;12618;54.386;18.394;2023-02-20T23:46:33;98060.96;;;5.89;100.00
24440;BME280;12618;54.386;18.394;2023-02-20T23:49:24;98062.09;;;5.93;100.00
24440;BME280;12618;54.386;18.394;2023-02-20T23:52:24;98067.88;;;5.93;100.00
24440;BME280;12618;54.386;18.394;2023-02-20T23:55:26;98070.52;;;5.93;100.00
24440;BME280;12618;54.386;18.394;2023-02-20T23:58:18;98083.88;;;5.91;100.00
